Time;durP1;ratioP1;P1;durP2;ratioP2;P2;SDS_P1;SDS_P2;PMS_P1;PMS_P2;Temp;Humidity;BMP_temperature;BMP_pressure;BME280_temperature;BME280_humidity;BME280_pressure;Samples;Min_cycle;Max_cycle;Signal;HPM_P1;HPM_P2
2022/06/05 00:02:36;;;;;;;11.50;8.23;;;;;;;17.49;71.05;101236.95;5050787;58;1141130;-72
2022/06/05 00:08:11;;;;;;;8.13;6.90;;;;;;;17.44;71.21;101240.55;5103788;57;1139256;-71
2022/06/05 00:13:49;;;;;;;10.20;7.97;;;;;;;17.37;71.41;101245.66;5138320;57;1136886;-72
2022/06/05 00:18:55;;;;;;;10.23;7.33;;;;;;;17.30;71.82;101245.88;5138391;57;1139011;-72
2022/06/05 00:24:01;;;;;;;14.53;7.73;;;;;;;17.21;71.59;101250.77;5127396;57;1139122;-71
2022/06/05 00:29:17;;;;;;;10.60;7.93;;;;;;;17.03;71.58;101253.31;5055238;58;1139295;-72
2022/06/05 00:34:24;;;;;;;11.57;7.20;;;;;;;16.97;72.00;101249.02;5066759;57;1140958;-73
2022/06/05 00:40:21;;;;;;;10.52;7.52;;;;;;;16.90;71.93;101250.11;5034787;57;1141314;-72
2022/06/05 00:45:31;;;;;;;8.40;6.23;;;;;;;16.84;71.91;101246.65;5183377;56;1141394;-71
2022/06/05 00:50:39;;;;;;;15.53;7.53;;;;;;;16.74;71.82;101249.83;5111713;57;1139019;-72
2022/06/05 00:55:51;;;;;;;17.87;8.97;;;;;;;16.75;71.95;101251.03;5125987;57;1139605;-71
2022/06/05 01:00:57;;;;;;;9.80;7.67;;;;;;;16.67;71.78;101257.55;5043403;58;1141151;-72
2022/06/05 01:06:03;;;;;;;10.73;8.13;;;;;;;16.61;71.88;101262.59;5061428;58;1139008;-72
2022/06/05 01:11:33;;;;;;;11.30;7.97;;;;;;;16.50;71.71;101267.55;5125981;57;1141344;-72
2022/06/05 01:17:04;;;;;;;9.83;8.00;;;;;;;16.34;71.92;101254.77;5125915;57;1140974;-72
2022/06/05 01:22:32;;;;;;;12.33;8.33;;;;;;;16.21;72.08;101260.83;5125313;57;1139017;-72
2022/06/05 01:27:42;;;;;;;9.60;8.03;;;;;;;16.15;72.35;101266.25;5199134;56;1141025;-71
2022/06/05 01:33:11;;;;;;;10.97;9.00;;;;;;;16.18;72.46;101263.80;5031187;58;1139088;-72
2022/06/05 01:38:38;;;;;;;9.47;8.40;;;;;;;16.09;72.32;101257.93;5152104;56;1139168;-72
2022/06/05 01:43:48;;;;;;;12.47;9.30;;;;;;;16.04;72.63;101255.66;5123999;57;1136997;-72
2022/06/05 01:49:09;;;;;;;19.47;9.73;;;;;;;16.01;72.60;101263.96;5121280;57;1139207;-71
2022/06/05 01:54:22;;;;;;;14.90;9.78;;;;;;;15.94;72.65;101264.13;4955973;59;1139179;-72
2022/06/05 01:59:43;;;;;;;15.15;10.20;;;;;;;15.85;72.87;101262.30;4881348;59;1138932;-71
2022/06/05 02:04:57;;;;;;;12.60;9.40;;;;;;;15.81;73.01;101268.86;4880072;60;1143531;-72
2022/06/05 02:10:36;;;;;;;13.70;9.63;;;;;;;15.82;73.34;101271.89;4878643;59;1141261;-71
2022/06/05 02:15:42;;;;;;;11.30;10.10;;;;;;;15.86;73.35;101279.98;4879431;59;1141642;-71
2022/06/05 02:20:48;;;;;;;14.03;10.70;;;;;;;15.83;73.69;101266.91;4879548;59;1143329;-72
2022/06/05 02:25:55;;;;;;;13.12;10.54;;;;;;;15.78;73.50;101271.31;5069442;57;1143292;-71
2022/06/05 02:31:34;;;;;;;13.50;9.63;;;;;;;15.73;73.50;101278.04;5125663;57;1143408;-72
2022/06/05 02:36:56;;;;;;;15.60;8.47;;;;;;;15.62;73.23;101280.28;5144538;57;1141019;-72
2022/06/05 02:42:41;;;;;;;11.53;9.17;;;;;;;15.48;73.12;101280.11;5139539;57;1141179;-72
2022/06/05 02:48:01;;;;;;;12.13;8.27;;;;;;;15.32;73.06;101292.22;5042982;58;1141715;-71
2022/06/05 02:53:10;;;;;;;16.83;7.47;;;;;;;15.15;73.14;101293.64;5066792;57;1141140;-72
2022/06/05 02:58:16;;;;;;;14.03;8.00;;;;;;;15.09;73.18;101298.17;5083175;57;1138985;-71
2022/06/05 03:03:28;;;;;;;13.67;8.67;;;;;;;15.03;73.03;101302.19;5062472;57;1138935;-72
2022/06/05 03:08:33;;;;;;;17.16;8.92;;;;;;;14.97;73.12;101301.87;5119322;56;1138999;-71
2022/06/05 03:13:40;;;;;;;10.50;7.37;;;;;;;14.90;73.27;101311.34;5132857;56;1138983;-71
2022/06/05 03:18:46;;;;;;;9.87;7.47;;;;;;;14.80;73.04;101307.27;5066113;57;1139086;-71
2022/06/05 03:23:51;;;;;;;10.83;8.37;;;;;;;14.69;73.00;101319.27;5071710;57;1136960;-71
2022/06/05 03:28:57;;;;;;;11.37;8.73;;;;;;;14.63;73.19;101317.98;5117238;57;1139275;-71
2022/06/05 03:34:04;;;;;;;11.97;7.00;;;;;;;14.56;73.20;101325.24;5087798;57;1138966;-71
2022/06/05 03:39:10;;;;;;;10.83;7.40;;;;;;;14.53;73.23;101323.67;5042948;57;1139005;-71
2022/06/05 03:44:15;;;;;;;12.97;6.73;;;;;;;14.52;73.08;101331.30;5097555;57;1139013;-71
2022/06/05 03:49:21;;;;;;;11.67;7.43;;;;;;;14.50;73.16;101329.75;5121298;57;1139186;-71
2022/06/05 03:54:27;;;;;;;9.23;7.83;;;;;;;14.51;73.58;101334.95;5144601;57;1139082;-71
2022/06/05 03:59:35;;;;;;;10.40;7.72;;;;;;;14.54;73.67;101335.16;5121458;57;1137174;-72
2022/06/05 04:04:41;;;;;;;9.33;7.13;;;;;;;14.55;73.69;101342.18;5125649;57;1138996;-72
2022/06/05 04:09:47;;;;;;;8.40;7.50;;;;;;;14.50;73.67;101332.41;5061180;58;1137202;-71
2022/06/05 04:14:54;;;;;;;12.07;7.33;;;;;;;14.40;73.71;101334.47;5125507;57;1136902;-71
2022/06/05 04:20:00;;;;;;;10.03;8.03;;;;;;;14.33;74.29;101331.92;5061084;58;1137208;-71
2022/06/05 04:25:09;;;;;;;8.20;6.33;;;;;;;14.38;74.88;101327.05;5122120;57;1136902;-71
2022/06/05 04:30:15;;;;;;;8.07;7.23;;;;;;;14.39;74.35;101331.41;5144768;57;1138946;-71
2022/06/05 04:35:21;;;;;;;12.50;6.90;;;;;;;14.33;74.64;101324.42;5126443;57;1139243;-72
2022/06/05 04:40:27;;;;;;;9.70;7.10;;;;;;;14.34;74.77;101326.97;5138038;57;1140992;-71
2022/06/05 04:45:34;;;;;;;11.33;7.53;;;;;;;14.26;74.69;101329.86;5156279;56;1139376;-71
2022/06/05 04:50:40;;;;;;;12.47;7.80;;;;;;;14.21;74.98;101328.89;5138417;57;1141175;-71
2022/06/05 04:55:46;;;;;;;12.83;6.93;;;;;;;14.30;75.38;101329.50;5138264;57;1141124;-71
2022/06/05 05:00:51;;;;;;;8.50;6.90;;;;;;;14.37;74.66;101332.02;5055154;58;1141435;-72
2022/06/05 05:05:57;;;;;;;11.40;7.30;;;;;;;14.40;74.91;101343.78;5055159;58;1138957;-71
2022/06/05 05:11:03;;;;;;;10.63;7.70;;;;;;;14.57;75.26;101346.91;5215048;56;1141260;-71
2022/06/05 05:16:10;;;;;;;11.10;6.70;;;;;;;14.71;74.69;101353.28;5138282;57;1141144;-71
2022/06/05 05:21:20;;;;;;;7.67;5.57;;;;;;;14.84;74.81;101355.77;5193005;56;1141147;-71
2022/06/05 05:26:33;;;;;;;9.55;5.65;;;;;;;14.96;74.43;101355.64;5105770;57;1139028;-71
2022/06/05 05:31:42;;;;;;;5.80;5.30;;;;;;;15.21;74.47;101342.44;5224013;56;1139006;-71
2022/06/05 05:36:49;;;;;;;8.50;6.33;;;;;;;15.40;73.39;101339.92;5221619;56;1138989;-72
2022/06/05 05:42:07;;;;;;;9.50;5.67;;;;;;;15.63;73.04;101341.98;5126055;57;1138906;-71
2022/06/05 05:47:20;;;;;;;8.53;6.60;;;;;;;15.82;70.86;101342.09;5043294;58;1139110;-71
2022/06/05 05:52:26;;;;;;;;;;;;;;;15.98;70.91;101339.42;5087784;57;1139030;-71
2022/06/05 05:57:32;;;;;;;6.90;4.97;;;;;;;16.12;71.02;101340.39;5064078;58;976354;-71
2022/06/05 06:02:38;;;;;;;8.93;4.67;;;;;;;16.31;70.32;101339.13;5067313;56;1136981;-71
2022/06/05 06:07:45;;;;;;;5.57;4.43;;;;;;;16.49;69.32;101344.66;5140875;56;1138905;-72
2022/06/05 06:12:51;;;;;;;13.63;5.17;;;;;;;16.63;69.31;101337.63;5133851;56;1139171;-71
2022/06/05 06:17:57;;;;;;;8.90;5.10;;;;;;;16.78;69.51;101333.57;5095362;57;1141050;-72
2022/06/05 06:23:04;;;;;;;6.33;5.57;;;;;;;17.07;68.88;101342.93;5070210;57;1138962;-71
2022/06/05 06:28:11;;;;;;;7.33;5.30;;;;;;;17.27;67.15;101332.20;5072522;57;1139072;-71
2022/06/05 06:33:17;;;;;;;8.40;5.30;;;;;;;17.37;66.90;101319.69;5088729;57;1138969;-71
2022/06/05 06:38:22;;;;;;;7.00;4.43;;;;;;;17.54;65.56;101324.30;5087360;57;1138964;-71
2022/06/05 06:43:29;;;;;;;6.57;4.47;;;;;;;17.70;65.29;101313.88;5082178;57;1138877;-72
2022/06/05 06:48:35;;;;;;;6.63;4.33;;;;;;;17.76;64.18;101313.77;5043060;58;1138988;-72
2022/06/05 06:53:42;;;;;;;4.93;4.33;;;;;;;17.85;63.16;101308.40;5069128;57;1139142;-72
2022/06/05 06:58:49;;;;;;;7.13;3.60;;;;;;;17.96;63.18;101300.66;5125610;57;1138932;-72
2022/06/05 07:03:55;;;;;;;8.03;4.73;;;;;;;18.12;62.09;101301.37;5069483;57;1138978;-72
2022/06/05 07:09:01;;;;;;;6.93;3.97;;;;;;;18.28;61.70;101302.41;5102792;57;1138911;-72
2022/06/05 07:14:07;;;;;;;5.53;4.23;;;;;;;18.40;61.81;101295.00;5069123;57;1137135;-71
2022/06/05 07:19:15;;;;;;;7.83;4.40;;;;;;;18.51;61.94;101296.61;5134576;56;1136915;-71
2022/06/05 07:24:21;;;;;;;6.17;3.80;;;;;;;18.76;61.48;101301.27;5078419;57;1136926;-72
2022/06/05 07:29:27;;;;;;;3.35;3.12;;;;;;;19.03;60.37;101290.95;5069993;57;1136922;-71
2022/06/05 07:34:32;;;;;;;4.35;3.67;;;;;;;19.25;57.73;101301.17;5072602;57;1137143;-71
2022/06/05 07:39:38;;;;;;;8.23;3.67;;;;;;;19.50;58.05;101301.39;5084923;57;1136949;-72
2022/06/05 07:44:44;;;;;;;5.15;3.85;;;;;;;19.64;57.56;101305.67;5054424;57;1136893;-72
2022/06/05 07:49:50;;;;;;;9.03;3.22;;;;;;;19.90;58.15;101288.69;5027252;58;1136911;-73
2022/06/05 07:54:55;;;;;;;3.90;2.90;;;;;;;20.07;54.27;101289.61;5096117;57;1137008;-72
2022/06/05 08:00:05;;;;;;;3.42;3.12;;;;;;;20.12;53.68;101286.78;5041966;58;1136923;-72
2022/06/05 08:05:11;;;;;;;3.75;3.33;;;;;;;20.34;53.71;101291.54;5054741;58;1136882;-71
2022/06/05 08:10:18;;;;;;;3.47;3.17;;;;;;;20.44;53.74;101295.98;5069900;57;1136880;-71
2022/06/05 08:15:23;;;;;;;3.52;3.10;;;;;;;20.59;53.98;101292.49;5124513;57;1137200;-72
2022/06/05 08:20:29;;;;;;;4.53;2.95;;;;;;;20.73;53.07;101295.53;5085090;57;1136833;-71
2022/06/05 08:25:35;;;;;;;8.28;2.95;;;;;;;20.87;52.04;101293.53;5050500;58;1137060;-71
2022/06/05 08:30:40;;;;;;;4.10;2.90;;;;;;;20.99;52.08;101296.22;5138703;57;1137000;-71
2022/06/05 08:35:50;;;;;;;4.42;3.37;;;;;;;21.12;49.74;101289.83;5095280;57;1137234;-72
2022/06/05 08:41:30;;;;;;;2.68;2.48;;;;;;;21.23;51.20;101293.58;5125059;57;1134884;-72
2022/06/05 08:46:43;;;;;;;7.45;2.77;;;;;;;21.44;48.76;101290.33;5050422;57;1139005;-71
2022/06/05 08:51:53;;;;;;;5.03;3.40;;;;;;;21.59;47.61;101284.58;5042313;58;1139098;-70
2022/06/05 08:57:07;;;;;;;9.80;2.90;;;;;;;21.69;48.25;101274.45;5055805;57;1139350;-72
2022/06/05 09:02:43;;;;;;;2.67;2.55;;;;;;;21.75;48.95;101259.46;5081794;57;1138967;-71
2022/06/05 09:07:52;;;;;;;3.55;2.33;;;;;;;21.87;47.57;101254.02;5060586;57;1139152;-72
2022/06/05 09:13:02;;;;;;;4.80;2.58;;;;;;;22.04;46.33;101244.05;5007141;57;1139188;-73
2022/06/05 09:18:15;;;;;;;8.98;2.62;;;;;;;22.27;48.23;101240.07;5054432;57;1139218;-73
2022/06/05 09:23:45;;;;;;;3.47;2.83;;;;;;;22.49;47.80;101235.70;5124851;57;1138961;-72
2022/06/05 09:29:06;;;;;;;3.58;2.33;;;;;;;22.79;46.26;101228.92;5042299;58;1139120;-72
2022/06/05 09:34:35;;;;;;;2.92;2.50;;;;;;;22.99;46.39;101237.88;5042385;58;1138947;-72
2022/06/05 09:39:57;;;;;;;17.23;3.00;;;;;;;23.06;45.74;101235.62;5042076;58;1136930;-72
2022/06/05 09:45:33;;;;;;;9.63;2.30;;;;;;;23.12;45.37;101228.12;5060160;58;1139015;-72
2022/06/05 09:50:39;;;;;;;2.45;2.00;;;;;;;23.27;44.10;101235.41;5072323;58;1137196;-72
2022/06/05 09:56:07;;;;;;;4.35;2.72;;;;;;;23.41;45.38;101224.62;5052891;58;1136949;-73
2022/06/05 10:01:33;;;;;;;3.35;2.98;;;;;;;23.61;45.66;101225.45;4993283;58;1134872;-72
2022/06/05 10:06:42;;;;;;;2.10;2.00;;;;;;;23.84;45.08;101219.41;5023535;58;1138978;-72
2022/06/05 10:12:07;;;;;;;2.65;2.42;;;;;;;23.99;44.15;101214.81;4991223;59;1138968;-72
2022/06/05 10:17:29;;;;;;;5.08;2.67;;;;;;;24.01;42.60;101206.52;4991125;59;1139007;-73
2022/06/05 10:23:15;;;;;;;6.78;3.42;;;;;;;24.05;45.02;101205.12;4990403;59;1139027;-72
2022/06/05 10:28:31;;;;;;;6.62;2.42;;;;;;;24.25;44.36;101198.63;5072060;58;1139017;-72
2022/06/05 10:33:54;;;;;;;5.22;3.00;;;;;;;24.40;46.30;101188.08;4993283;59;1139084;-72
2022/06/05 10:39:19;;;;;;;13.50;2.73;;;;;;;24.51;44.34;101190.27;5072391;58;1138940;-72
2022/06/05 10:44:47;;;;;;;4.87;2.72;;;;;;;24.67;45.68;101185.61;5093518;57;1141083;-72
2022/06/05 10:50:10;;;;;;;2.60;2.40;;;;;;;24.76;44.58;101182.56;5051618;58;1136990;-72
2022/06/05 10:55:48;;;;;;;6.90;2.45;;;;;;;24.83;43.94;101171.30;5072369;58;1136941;-72
2022/06/05 11:01:15;;;;;;;2.65;2.45;;;;;;;25.06;42.91;101164.29;5072030;58;1136873;-72
2022/06/05 11:06:47;;;;;;;4.85;2.50;;;;;;;25.16;43.62;101169.37;5089752;57;1134872;-72
2022/06/05 11:18:17;;;;;;;3.67;2.83;;;;;;;25.16;42.55;101178.84;5124640;57;1139172;-72
2022/06/05 11:23:27;;;;;;;3.55;3.25;;;;;;;25.10;41.92;101175.05;5137821;57;1138980;-72
2022/06/05 11:29:02;;;;;;;6.65;2.80;;;;;;;25.10;42.30;101172.86;4993255;58;1138992;-72
2022/06/05 11:34:29;;;;;;;3.15;2.87;;;;;;;25.15;42.04;101165.83;5128258;57;1139087;-72
2022/06/05 11:39:39;;;;;;;6.65;3.10;;;;;;;25.22;42.91;101166.69;5127706;57;1139067;-71
2022/06/05 11:44:55;;;;;;;3.72;2.62;;;;;;;25.32;42.39;101151.97;5132968;57;1139210;-72
2022/06/05 11:50:29;;;;;;;6.65;3.50;;;;;;;25.57;44.20;101139.06;5137881;57;1136934;-72
2022/06/05 11:55:44;;;;;;;4.17;3.35;;;;;;;25.67;42.34;101129.74;5120341;57;1136720;-73
2022/06/05 12:00:57;;;;;;;3.27;2.85;;;;;;;25.78;42.01;101123.24;5051191;57;1137074;-71
2022/06/05 12:06:38;;;;;;;2.95;2.75;;;;;;;26.03;43.01;101119.95;5112732;57;1136905;-72
2022/06/05 12:11:57;;;;;;;2.58;2.37;;;;;;;26.27;42.18;101122.94;5065958;58;1139101;-72
2022/06/05 12:17:31;;;;;;;2.50;2.40;;;;;;;26.35;40.80;101108.35;4992108;57;1139399;-74
2022/06/05 12:22:56;;;;;;;8.40;2.70;;;;;;;26.42;41.82;101108.37;5133489;57;1139402;-73
2022/06/05 12:28:28;;;;;;;3.05;2.77;;;;;;;26.52;42.87;101099.28;5037060;58;1138970;-72
2022/06/05 12:33:46;;;;;;;2.10;2.05;;;;;;;26.63;40.06;101088.62;5026108;58;1138985;-72
2022/06/05 12:39:05;;;;;;;4.75;2.65;;;;;;;26.69;41.46;101073.91;4979836;58;1139256;-74
2022/06/05 12:44:27;;;;;;;3.30;2.40;;;;;;;26.69;40.28;101082.05;5050141;58;1138963;-72
2022/06/05 12:49:37;;;;;;;;;;;;;;;26.76;40.33;101068.77;5086505;57;1139261;-74
2022/06/05 12:55:02;;;;;;;3.62;3.10;;;;;;;26.87;39.23;101072.21;4969425;57;976584;-72
2022/06/05 13:00:33;;;;;;;4.17;2.65;;;;;;;26.70;37.74;101061.48;5040346;58;1136958;-74
2022/06/05 13:05:50;;;;;;;2.40;2.30;;;;;;;26.61;38.30;101058.66;5024473;58;1136882;-72
2022/06/05 13:11:15;;;;;;;2.33;2.15;;;;;;;26.59;37.95;101055.33;4890731;60;1136944;-72
2022/06/05 13:16:46;;;;;;;3.05;2.30;;;;;;;26.56;37.14;101048.47;4945322;59;1137048;-72
2022/06/05 13:22:20;;;;;;;4.58;2.80;;;;;;;26.66;38.88;101034.98;5009597;58;1135157;-74
2022/06/05 13:27:54;;;;;;;3.02;2.45;;;;;;;26.82;38.06;101023.15;5059564;58;1138978;-72
2022/06/05 13:33:22;;;;;;;2.60;2.40;;;;;;;27.02;37.30;101012.78;4960109;58;1139040;-72
2022/06/05 13:38:48;;;;;;;4.40;2.27;;;;;;;27.02;37.30;101012.78;4960125;58;1139424;-72
2022/06/05 13:44:03;;;;;;;3.83;2.62;;;;;;;27.16;37.59;101023.91;5012573;57;1138986;-72
2022/06/05 13:49:23;;;;;;;2.50;2.15;;;;;;;27.22;36.71;101013.52;5016801;58;1139033;-73
2022/06/05 13:54:51;;;;;;;5.92;1.92;;;;;;;27.23;36.29;101009.75;5016273;59;1139000;-74
2022/06/05 14:00:12;;;;;;;8.35;2.00;;;;;;;27.23;35.98;101010.59;4990978;59;1139282;-74
2022/06/05 14:05:24;;;;;;;3.08;1.85;;;;;;;27.10;34.80;101005.22;5004602;58;1138820;-74
2022/06/05 14:10:33;;;;;;;2.42;2.22;;;;;;;27.13;36.41;100990.38;4911487;59;1137022;-71
2022/06/05 14:15:50;;;;;;;1.63;1.63;;;;;;;27.25;34.65;100996.80;4941407;59;1136933;-75
2022/06/05 14:20:59;;;;;;;3.27;2.30;;;;;;;27.20;34.83;100979.78;4962199;59;1136915;-72
2022/06/05 14:26:06;;;;;;;1.90;1.80;;;;;;;27.03;33.65;100974.56;5000575;58;1137015;-73
2022/06/05 14:31:18;;;;;;;3.20;1.80;;;;;;;27.03;33.65;100974.56;5050884;58;1136968;-71
2022/06/05 14:36:49;;;;;;;2.75;1.98;;;;;;;27.09;34.30;100968.77;4923384;59;1137032;-74
2022/06/05 14:42:01;;;;;;;2.50;2.37;;;;;;;27.06;33.03;100968.67;4897866;60;1136947;-75
2022/06/05 14:47:20;;;;;;;1.87;1.77;;;;;;;26.86;33.16;100963.33;5152941;56;1134914;-74
2022/06/05 14:52:49;;;;;;;5.60;1.80;;;;;;;26.88;33.09;100954.45;5178532;57;1138958;-74
2022/06/05 14:58:40;;;;;;;2.60;1.80;;;;;;;27.01;32.75;100955.46;5054725;58;1139110;-76
2022/06/05 15:04:07;;;;;;;1.20;1.20;;;;;;;27.00;32.55;100939.70;5035497;58;1138912;-75
2022/06/05 15:09:26;;;;;;;4.80;1.77;;;;;;;27.02;32.69;100928.63;5068942;56;1139217;-73
2022/06/05 15:14:45;;;;;;;3.72;1.85;;;;;;;27.02;32.32;100912.33;4909646;59;1138993;-75
2022/06/05 15:19:52;;;;;;;1.52;1.50;;;;;;;26.99;33.24;100918.19;4960434;59;1139012;-72
2022/06/05 15:25:24;;;;;;;5.95;2.42;;;;;;;26.96;33.80;100913.50;4961528;58;1139061;-76
2022/06/05 15:30:40;;;;;;;11.93;1.60;;;;;;;26.95;32.49;100909.64;4986767;58;1139087;-75
2022/06/05 15:36:08;;;;;;;4.37;1.45;;;;;;;26.86;32.94;100894.63;5091202;58;1141034;-75
2022/06/05 15:41:30;;;;;;;8.23;1.62;;;;;;;26.90;32.61;100892.60;4968699;58;1136945;-75
2022/06/05 15:46:47;;;;;;;1.60;1.52;;;;;;;26.98;32.78;100895.64;5013421;58;1136419;-73
2022/06/05 15:52:18;;;;;;;15.58;2.95;;;;;;;26.86;31.17;100887.84;5045571;57;1136916;-75
2022/06/05 16:03:04;;;;;;;5.00;1.80;;;;;;;26.71;31.90;100869.12;5111544;57;1138951;-73
2022/06/05 16:08:22;;;;;;;2.90;1.60;;;;;;;26.63;31.17;100862.05;5090370;56;1139069;-72
2022/06/05 16:13:29;;;;;;;1.98;1.60;;;;;;;26.56;30.86;100842.28;5103960;56;1138934;-75
2022/06/05 16:18:50;;;;;;;3.52;1.80;;;;;;;26.51;30.66;100854.81;5086693;58;1139031;-72
2022/06/05 16:24:07;;;;;;;;;;;;;;;26.44;31.14;100846.69;5067097;57;1138989;-74
2022/06/05 16:29:17;;;;;;;2.15;1.55;;;;;;;26.40;31.44;100850.06;5100848;56;976453;-72
2022/06/05 16:40:07;;;;;;;4.25;1.67;;;;;;;26.32;30.21;100832.66;5085668;57;1138916;-72
2022/06/05 16:45:17;;;;;;;4.72;2.05;;;;;;;26.21;30.21;100827.35;5101702;57;1139006;-75
2022/06/05 16:50:33;;;;;;;2.72;1.30;;;;;;;26.16;29.85;100822.56;5108039;57;1138954;-75
2022/06/05 16:56:05;;;;;;;5.08;1.72;;;;;;;26.07;29.11;100826.56;5122261;57;1138937;-75
2022/06/05 17:01:18;;;;;;;2.22;1.10;;;;;;;25.99;29.28;100824.06;5135183;57;1136917;-71
2022/06/05 17:06:48;;;;;;;2.12;1.85;;;;;;;25.93;29.26;100816.80;5135249;57;1136939;-73
2022/06/05 17:12:04;;;;;;;4.05;1.85;;;;;;;25.88;28.57;100825.56;5177081;57;1137135;-73
2022/06/05 17:17:30;;;;;;;2.20;1.60;;;;;;;25.83;28.79;100817.22;5191410;57;1136849;-73
2022/06/05 17:22:44;;;;;;;4.55;2.22;;;;;;;25.72;28.28;100819.23;5194840;56;1136965;-72
2022/06/05 17:28:27;;;;;;;2.37;2.00;;;;;;;25.61;28.39;100833.91;5159526;56;21215;-72
2022/06/05 17:33:54;;;;;;;3.17;2.02;;;;;;;25.55;28.80;100840.47;5125039;57;1135371;-70
2022/06/05 17:39:23;;;;;;;1.90;1.80;;;;;;;25.44;28.58;100840.27;5124880;57;1138989;-71
2022/06/05 17:44:45;;;;;;;2.83;2.62;;;;;;;25.39;28.69;100835.47;5155818;56;1139005;-72
2022/06/05 17:49:56;;;;;;;;;;;;;;;25.36;28.76;100848.06;5110371;57;1139410;-71
2022/06/05 17:55:24;;;;;;;1.30;1.30;;;;;;;25.32;29.13;100862.24;4857195;60;976541;-72
2022/06/05 18:00:31;;;;;;;1.07;1.07;;;;;;;25.23;29.81;100858.36;4922196;59;1136939;-70
2022/06/05 18:05:41;;;;;;;3.87;1.67;;;;;;;25.23;29.87;100852.95;4993403;58;1138950;-73
2022/06/05 18:10:57;;;;;;;5.70;2.40;;;;;;;25.21;29.98;100844.20;4982639;58;1139262;-72
2022/06/05 18:16:06;;;;;;;5.87;1.95;;;;;;;25.13;30.42;100843.05;4873510;59;1139168;-72
2022/06/05 18:21:22;;;;;;;2.65;1.62;;;;;;;25.03;30.93;100841.80;5149426;56;1138921;-72
2022/06/05 18:32:01;;;;;;;2.85;1.92;;;;;;;24.69;31.30;100815.66;5162156;56;1137101;-71
2022/06/05 18:42:45;;;;;;;1.40;1.30;;;;;;;24.29;32.75;100820.11;5211627;56;1137080;-74
2022/06/05 18:47:58;;;;;;;1.45;1.35;;;;;;;24.05;33.46;100821.39;5245367;56;1136897;-74
2022/06/05 18:53:07;;;;;;;14.75;1.65;;;;;;;23.89;34.16;100821.70;5241839;56;1134968;-73
2022/06/05 18:58:40;;;;;;;11.50;1.55;;;;;;;23.71;34.79;100811.41;5147794;56;1141014;-72
2022/06/05 19:04:03;;;;;;;8.40;1.90;;;;;;;23.53;35.34;100825.94;5160798;57;1141307;-74
2022/06/05 19:09:18;;;;;;;;;;;;;;;23.36;36.10;100826.19;5212100;56;1138962;-72
2022/06/05 19:14:50;;;;;;;32.17;4.67;;;;;;;23.17;36.90;100820.09;5169806;56;976255;-74
2022/06/05 19:20:10;;;;;;;8.68;1.67;;;;;;;22.96;38.28;100829.53;5179046;56;1139138;-72
2022/06/05 19:25:29;;;;;;;10.05;2.25;;;;;;;22.79;38.96;100841.91;5174143;56;1138991;-72
2022/06/05 19:30:38;;;;;;;9.08;2.45;;;;;;;22.62;39.93;100833.69;5160086;56;1141016;-71
2022/06/05 19:41:15;;;;;;;12.66;1.76;;;;;;;22.28;41.28;100838.38;5157114;56;1141125;-72
2022/06/05 19:46:21;;;;;;;2.75;1.42;;;;;;;22.11;41.75;100834.19;5157982;56;1141207;-72
2022/06/05 19:51:32;;;;;;;1.42;1.32;;;;;;;21.98;42.14;100838.02;5146047;56;1139008;-71
2022/06/05 19:56:41;;;;;;;1.42;1.30;;;;;;;21.88;42.54;100835.58;5118636;57;1139043;-72
2022/06/05 20:01:52;;;;;;;3.55;1.30;;;;;;;21.71;42.76;100834.91;5134549;56;1137202;-72
2022/06/05 20:07:03;;;;;;;1.47;1.47;;;;;;;21.51;43.00;100822.18;5127546;57;1136893;-73
2022/06/05 20:12:32;;;;;;;2.00;1.90;;;;;;;21.33;43.12;100816.61;5059844;58;1136951;-71
2022/06/05 20:17:50;;;;;;;1.50;1.40;;;;;;;21.13;43.39;100822.12;5076291;58;1136909;-71
2022/06/05 20:23:05;;;;;;;1.57;1.52;;;;;;;21.10;43.67;100829.20;5103214;57;1136885;-72
2022/06/05 20:28:18;;;;;;;1.72;1.62;;;;;;;21.14;43.85;100823.80;5076857;58;1137111;-72
2022/06/05 20:33:33;;;;;;;1.92;1.80;;;;;;;21.10;43.79;100835.92;5078259;57;1135153;-71
2022/06/05 20:38:44;;;;;;;7.73;2.13;;;;;;;21.21;43.86;100840.94;5103325;56;1138945;-72
2022/06/05 20:43:51;;;;;;;2.17;1.90;;;;;;;21.30;43.97;100841.19;5174036;56;1139045;-72
2022/06/05 20:49:11;;;;;;;3.20;1.98;;;;;;;21.27;43.76;100834.81;5176964;56;1139161;-72
2022/06/05 20:54:18;;;;;;;14.80;10.23;;;;;;;21.20;43.86;100833.87;5196383;56;1139208;-72
2022/06/05 20:59:25;;;;;;;104.83;52.35;;;;;;;21.19;44.27;100841.63;5195838;56;1143143;-72
2022/06/05 21:10:05;;;;;;;40.38;19.87;;;;;;;21.08;44.80;100847.39;5163371;56;1143135;-72
2022/06/05 21:20:46;;;;;;;4.12;3.40;;;;;;;21.00;45.08;100850.13;5175219;56;1143119;-72
2022/06/05 21:25:52;;;;;;;9.95;3.75;;;;;;;20.90;45.07;100836.09;5164588;56;1139143;-72
2022/06/05 21:31:01;;;;;;;3.40;3.10;;;;;;;20.80;44.97;100836.80;5133723;56;1139364;-72
2022/06/05 21:36:09;;;;;;;6.00;2.87;;;;;;;20.74;44.79;100846.44;5095268;57;1139874;-72
2022/06/05 21:41:36;;;;;;;3.27;2.65;;;;;;;20.64;44.53;100852.52;5097477;57;1139006;-72
2022/06/05 21:46:44;;;;;;;2.40;2.10;;;;;;;20.54;44.50;100850.56;5175122;57;1139022;-72
2022/06/05 21:51:52;;;;;;;5.90;2.75;;;;;;;20.48;44.83;100849.91;5198952;56;1138924;-72
2022/06/05 21:56:58;;;;;;;7.37;3.05;;;;;;;20.45;45.03;100858.34;5144711;57;1139017;-72
2022/06/05 22:02:04;;;;;;;3.90;2.60;;;;;;;20.41;44.98;100863.72;5088092;57;1139245;-72
2022/06/05 22:07:16;;;;;;;3.12;2.92;;;;;;;20.32;45.05;100856.16;5120510;57;1137056;-72
2022/06/05 22:12:22;;;;;;;3.60;2.83;;;;;;;20.27;45.16;100863.92;5081198;57;1136958;-72
2022/06/05 22:17:27;;;;;;;7.47;2.52;;;;;;;20.23;45.39;100866.11;5113144;56;1136895;-72
2022/06/05 22:22:33;;;;;;;3.83;2.40;;;;;;;20.23;45.50;100867.95;5031852;57;1137019;-72
2022/06/05 22:27:41;;;;;;;2.85;2.65;;;;;;;20.20;45.54;100857.05;5045938;57;1136737;-72
2022/06/05 22:32:47;;;;;;;3.77;2.60;;;;;;;20.08;45.73;100861.63;5125296;57;1136892;-71
2022/06/05 22:37:53;;;;;;;3.67;3.35;;;;;;;19.99;46.28;100863.00;5141553;57;1137276;-72
2022/06/05 22:42:59;;;;;;;4.78;2.47;;;;;;;19.81;46.08;100861.02;5141499;57;1136977;-72
2022/06/05 22:48:05;;;;;;;6.90;3.12;;;;;;;19.70;46.39;100847.96;5195152;57;1136958;-72
2022/06/05 22:53:11;;;;;;;2.55;2.35;;;;;;;19.64;46.56;100838.73;5224723;56;1137157;-72
2022/06/05 22:58:17;;;;;;;3.27;2.60;;;;;;;19.49;46.66;100817.63;5228718;56;1136880;-72
2022/06/05 23:03:23;;;;;;;2.98;2.27;;;;;;;19.37;47.21;100810.91;5226099;56;1137210;-72
2022/06/05 23:08:29;;;;;;;3.52;2.55;;;;;;;19.32;47.63;100802.01;5209292;56;1137146;-72
2022/06/05 23:13:35;;;;;;;3.28;2.34;;;;;;;19.31;47.90;100790.95;5142974;56;1137570;-72
2022/06/05 23:24:05;;;;;;;6.72;3.10;;;;;;;19.22;48.00;100786.61;5142478;57;1138976;-72
2022/06/05 23:29:11;;;;;;;6.47;3.05;;;;;;;19.22;47.89;100787.95;5129555;56;1139128;-70
2022/06/05 23:34:22;;;;;;;8.40;3.50;;;;;;;19.24;47.85;100785.10;5142427;56;1139006;-70
2022/06/05 23:39:25;;;;;;;2.90;2.70;;;;;;;19.19;47.90;100786.94;5142661;56;1139042;-70
2022/06/05 23:44:31;;;;;;;13.88;3.10;;;;;;;19.07;48.13;100784.27;5183893;56;1138948;-70
2022/06/05 23:49:37;;;;;;;3.35;3.02;;;;;;;18.99;48.39;100785.59;5235782;55;1141336;-70
2022/06/05 23:54:43;;;;;;;5.08;3.08;;;;;;;18.90;48.81;100785.26;5282205;55;1139290;-70
2022/06/05 23:59:50;;;;;;;4.03;2.75;;;;;;;18.76;49.13;100773.85;5228330;55;1139116;-70
